Time;durP1;ratioP1;P1;durP2;ratioP2;P2;SDS_P1;SDS_P2;PMS_P1;PMS_P2;Temp;Humidity;BMP_temperature;BMP_pressure;BME280_temperature;BME280_humidity;BME280_pressure;Samples;Min_cycle;Max_cycle;Signal;HPM_P1;HPM_P2
2021/04/19 00:00:11;;;;;;;17.20;13.32;;;7.80;93.90;;;;;;5028211;28;20104;-69
2021/04/19 00:02:37;;;;;;;20.38;12.57;;;7.80;93.60;;;;;;5028113;28;20466;-68
2021/04/19 00:05:06;;;;;;;17.30;13.07;;;7.80;93.60;;;;;;5028328;28;20517;-67
2021/04/19 00:07:32;;;;;;;15.90;13.07;;;7.80;93.70;;;;;;5027692;28;20029;-68
2021/04/19 00:09:58;;;;;;;;;;;7.80;93.80;;;;;;5028489;28;20044;-68
2021/04/19 00:12:23;;;;;;;15.15;10.75;;;7.80;93.70;;;;;;5028137;28;20328;-68
2021/04/19 00:14:49;;;;;;;;;;;7.80;93.80;;;;;;5026730;28;20811;-67
2021/04/19 00:17:15;;;;;;;15.98;12.43;;;7.80;93.80;;;;;;5028170;28;19905;-67
2021/04/19 00:19:40;;;;;;;15.85;12.27;;;7.80;93.70;;;;;;5042902;28;20658;-68
2021/04/19 00:22:06;;;;;;;;;;;7.70;93.70;;;;;;5027740;28;20076;-68
2021/04/19 00:24:32;;;;;;;15.20;11.23;;;7.70;93.90;;;;;;5027919;28;20357;-68
2021/04/19 00:26:57;;;;;;;;;;;7.70;93.90;;;;;;5027105;28;20048;-68
2021/04/19 00:29:23;;;;;;;19.48;13.35;;;7.70;94.00;;;;;;5027473;28;19970;-67
2021/04/19 00:31:48;;;;;;;19.15;13.30;;;7.70;93.90;;;;;;5027520;28;20077;-68
2021/04/19 00:34:14;;;;;;;;;;;7.70;94.00;;;;;;5028309;28;20041;-68
2021/04/19 00:36:40;;;;;;;17.08;13.63;;;7.80;94.00;;;;;;5025679;28;20003;-69
2021/04/19 00:39:05;;;;;;;;;;;7.80;94.10;;;;;;5028105;28;20025;-68
2021/04/19 00:41:31;;;;;;;16.15;12.32;;;7.80;94.00;;;;;;5027633;28;19909;-67
2021/04/19 00:43:57;;;;;;;;;;;7.80;93.90;;;;;;5028007;28;20025;-68
2021/04/19 00:46:23;;;;;;;14.48;11.27;;;7.80;93.80;;;;;;5027185;28;20286;-68
2021/04/19 00:48:48;;;;;;;17.25;13.02;;;7.70;93.80;;;;;;5027593;28;20029;-68
2021/04/19 00:51:14;;;;;;;;;;;7.80;93.90;;;;;;5027980;28;20608;-67
2021/04/19 00:53:40;;;;;;;14.05;11.63;;;7.80;94.00;;;;;;5025801;28;19909;-68
2021/04/19 00:56:08;;;;;;;;;;;7.70;94.10;;;;;;5027310;28;20044;-68
2021/04/19 00:58:35;;;;;;;17.15;12.63;;;7.70;94.20;;;;;;5027454;28;19979;-68
2021/04/19 01:01:03;;;;;;;16.92;14.20;;;7.70;94.10;;;;;;5042622;28;20029;-68
2021/04/19 01:03:29;;;;;;;15.80;12.52;;;7.70;94.10;;;;;;5041995;28;20030;-68
2021/04/19 01:05:54;;;;;;;;;;;7.70;94.20;;;;;;5027387;28;20025;-68
2021/04/19 01:08:20;;;;;;;19.83;14.10;;;7.80;94.20;;;;;;5026693;28;19912;-68
2021/04/19 01:10:46;;;;;;;16.50;12.75;;;7.80;94.30;;;;;;5042169;28;20381;-67
2021/04/19 01:13:12;;;;;;;;;;;7.70;94.40;;;;;;5027412;28;20041;-68
2021/04/19 01:15:38;;;;;;;14.57;11.63;;;7.70;94.30;;;;;;5026891;28;19905;-68
2021/04/19 01:18:04;;;;;;;17.15;13.52;;;7.80;94.40;;;;;;5042191;28;20044;-67
2021/04/19 01:20:31;;;;;;;;;;;7.80;94.50;;;;;;5027121;28;20025;-69
2021/04/19 01:22:56;;;;;;;16.88;12.57;;;7.80;94.50;;;;;;5026692;28;19954;-69
2021/04/19 01:25:26;;;;;;;;;;;7.80;94.50;;;;;;5026976;28;20112;-68
2021/04/19 01:27:53;;;;;;;18.33;13.13;;;7.80;94.40;;;;;;5026794;28;19956;-68
2021/04/19 01:30:22;;;;;;;16.67;13.40;;;7.80;94.40;;;;;;5026551;28;20029;-68
2021/04/19 01:32:47;;;;;;;16.02;13.18;;;7.80;94.40;;;;;;5042122;28;20065;-68
2021/04/19 01:35:13;;;;;;;;;;;7.80;94.40;;;;;;5027346;28;20305;-67
2021/04/19 01:37:39;;;;;;;16.35;12.18;;;7.80;94.50;;;;;;5026047;28;19971;-68
2021/04/19 01:40:06;;;;;;;;;;;7.80;94.50;;;;;;5027058;28;20029;-70
2021/04/19 01:42:32;;;;;;;17.52;13.10;;;7.80;94.50;;;;;;5026319;28;19909;-68
2021/04/19 01:44:57;;;;;;;;;;;7.80;94.50;;;;;;5026461;28;20044;-68
2021/04/19 01:47:24;;;;;;;15.90;12.90;;;7.80;94.50;;;;;;5026795;28;19974;-69
2021/04/19 01:49:50;;;;;;;18.48;14.00;;;7.80;94.60;;;;;;5026274;28;20029;-68
2021/04/19 01:52:15;;;;;;;;;;;7.80;94.60;;;;;;5025352;28;20097;-68
2021/04/19 01:54:41;;;;;;;15.90;12.90;;;7.80;94.70;;;;;;5026549;28;19909;-69
2021/04/19 01:57:07;;;;;;;;;;;7.80;94.70;;;;;;5027279;28;20029;-68
2021/04/19 01:59:33;;;;;;;20.50;15.18;;;7.80;94.70;;;;;;5026725;28;19928;-68
2021/04/19 02:02:02;;;;;;;;;;;7.80;94.80;;;;;;5027051;28;20060;-68
2021/04/19 02:04:39;;;;;;;19.98;14.93;;;7.80;94.90;;;;;;5026503;28;20024;-68
2021/04/19 02:07:17;;;;;;;18.77;14.93;;;7.80;94.80;;;;;;5041745;28;20052;-68
2021/04/19 02:10:08;;;;;;;19.10;14.27;;;7.80;94.80;;;;;;5026456;28;20037;-67
2021/04/19 02:12:44;;;;;;;19.77;15.52;;;7.80;94.80;;;;;;5026155;28;20041;-68
2021/04/19 02:15:16;;;;;;;18.13;14.32;;;7.80;94.80;;;;;;5041722;28;20021;-66
2021/04/19 02:17:54;;;;;;;22.20;15.68;;;7.80;94.80;;;;;;5026549;28;20037;-68
2021/04/19 02:20:47;;;;;;;18.08;14.48;;;7.80;94.80;;;;;;5026446;28;20027;-68
2021/04/19 02:23:40;;;;;;;18.75;14.82;;;7.80;94.70;;;;;;5025322;28;20040;-68
2021/04/19 02:26:21;;;;;;;18.35;14.30;;;7.80;94.50;;;;;;5025998;28;20033;-69
2021/04/19 02:28:54;;;;;;;17.92;13.60;;;7.80;94.50;;;;;;5026735;28;20038;-67
2021/04/19 02:31:22;;;;;;;18.95;14.93;;;7.80;94.20;;;;;;5026307;28;20421;-68
2021/04/19 02:33:49;;;;;;;22.83;14.82;;;7.80;94.10;;;;;;5026235;28;20024;-68
2021/04/19 02:36:16;;;;;;;17.90;13.60;;;7.70;94.10;;;;;;5041002;28;20037;-68
2021/04/19 02:38:49;;;;;;;15.05;11.65;;;7.80;94.00;;;;;;5026610;28;20029;-68
2021/04/19 02:41:16;;;;;;;17.38;14.40;;;7.70;94.10;;;;;;5026220;28;20460;-69
2021/04/19 02:43:43;;;;;;;17.75;14.50;;;7.80;94.10;;;;;;5026155;28;20026;-69
2021/04/19 02:46:09;;;;;;;17.75;13.43;;;7.70;94.00;;;;;;5041650;28;20037;-69
2021/04/19 02:48:38;;;;;;;20.67;15.00;;;7.70;94.00;;;;;;5025993;28;20032;-68
2021/04/19 02:51:08;;;;;;;18.73;13.43;;;7.70;94.00;;;;;;5025334;28;20044;-67
2021/04/19 02:53:35;;;;;;;19.73;14.68;;;7.70;94.10;;;;;;5041199;28;20379;-68
2021/04/19 02:56:04;;;;;;;16.55;13.68;;;7.70;94.10;;;;;;5027014;28;20029;-68
2021/04/19 02:58:40;;;;;;;18.63;14.10;;;7.70;94.10;;;;;;5029720;28;20125;-67
2021/04/19 03:01:08;;;;;;;17.52;13.80;;;7.70;94.10;;;;;;5028569;28;20025;-68
2021/04/19 03:03:36;;;;;;;17.52;14.02;;;7.70;94.00;;;;;;5029636;28;20021;-67
2021/04/19 03:06:05;;;;;;;21.08;13.95;;;7.70;93.80;;;;;;5028720;28;20036;-68
2021/04/19 03:08:36;;;;;;;17.85;14.48;;;7.70;93.80;;;;;;5044930;28;20508;-68
2021/04/19 03:11:16;;;;;;;17.02;13.73;;;7.70;93.60;;;;;;5029503;28;20409;-67
2021/04/19 03:13:43;;;;;;;20.23;14.80;;;7.70;93.60;;;;;;5029478;28;20017;-67
2021/04/19 03:16:10;;;;;;;20.00;14.75;;;7.70;93.70;;;;;;5044593;28;20033;-68
2021/04/19 03:18:37;;;;;;;16.83;13.68;;;7.70;93.70;;;;;;5044657;28;20434;-68
2021/04/19 03:21:05;;;;;;;15.63;13.38;;;7.70;93.80;;;;;;5027924;28;20030;-67
2021/04/19 03:23:33;;;;;;;19.20;13.82;;;7.70;93.60;;;;;;5029427;28;20513;-68
2021/04/19 03:26:01;;;;;;;16.77;13.52;;;7.70;93.60;;;;;;5028771;28;20026;-67
2021/04/19 03:28:30;;;;;;;17.58;13.80;;;7.80;93.40;;;;;;5028849;28;20393;-68
2021/04/19 03:30:56;;;;;;;18.42;13.57;;;7.80;93.30;;;;;;5029182;28;20029;-68
2021/04/19 03:33:22;;;;;;;20.00;13.13;;;7.90;93.30;;;;;;5028694;28;20037;-66
2021/04/19 03:35:49;;;;;;;17.42;14.13;;;7.80;93.40;;;;;;5028558;28;20021;-68
2021/04/19 03:38:19;;;;;;;16.98;13.43;;;7.80;93.40;;;;;;5029107;28;20032;-68
2021/04/19 03:40:47;;;;;;;21.02;13.73;;;7.80;93.30;;;;;;5028565;28;20025;-68
2021/04/19 03:43:17;;;;;;;16.65;13.10;;;7.80;93.40;;;;;;5028892;28;20394;-68
2021/04/19 03:45:44;;;;;;;16.80;13.25;;;7.80;93.30;;;;;;5028803;28;20437;-67
2021/04/19 03:48:17;;;;;;;19.08;13.82;;;7.80;93.20;;;;;;5028699;28;20041;-67
2021/04/19 03:50:48;;;;;;;17.25;14.07;;;7.80;93.20;;;;;;5028227;28;20367;-67
2021/04/19 03:53:16;;;;;;;17.40;13.80;;;7.90;93.00;;;;;;5028498;28;20458;-67
2021/04/19 03:55:44;;;;;;;19.58;13.57;;;7.90;93.10;;;;;;5028570;28;20513;-68
2021/04/19 03:58:12;;;;;;;17.63;13.25;;;7.90;93.10;;;;;;5028494;28;20041;-68
2021/04/19 04:00:40;;;;;;;16.50;13.35;;;7.90;93.10;;;;;;5028226;28;20026;-67
2021/04/19 04:03:07;;;;;;;19.27;14.23;;;7.90;93.10;;;;;;5028467;28;20026;-67
2021/04/19 04:05:34;;;;;;;20.13;14.23;;;7.90;93.20;;;;;;5027996;28;20025;-68
2021/04/19 04:08:00;;;;;;;18.27;14.52;;;7.90;93.00;;;;;;5027462;28;20084;-68
2021/04/19 04:10:27;;;;;;;19.00;14.73;;;7.80;93.20;;;;;;5027970;28;20032;-68
2021/04/19 04:12:54;;;;;;;18.80;14.70;;;7.80;93.30;;;;;;5028374;28;20041;-68
2021/04/19 04:15:20;;;;;;;24.20;16.58;;;7.80;93.20;;;;;;5027521;28;20083;-67
2021/04/19 04:17:45;;;;;;;;;;;7.80;93.40;;;;;;5028543;28;20043;-67
2021/04/19 04:20:12;;;;;;;21.85;15.10;;;7.70;93.50;;;;;;5027702;28;20381;-68
2021/04/19 04:22:38;;;;;;;18.60;14.13;;;7.70;93.70;;;;;;5027656;28;20025;-68
2021/04/19 04:25:05;;;;;;;20.02;14.13;;;7.60;93.90;;;;;;5028028;28;20045;-67
2021/04/19 04:27:31;;;;;;;18.05;14.43;;;7.60;94.10;;;;;;5027914;28;20032;-67
2021/04/19 04:29:56;;;;;;;;;;;7.60;94.20;;;;;;5027771;28;20037;-68
2021/04/19 04:32:22;;;;;;;19.48;15.23;;;7.50;94.20;;;;;;5027234;28;19916;-68
2021/04/19 04:34:47;;;;;;;;;;;7.50;94.40;;;;;;5027681;28;20061;-68
2021/04/19 04:37:13;;;;;;;19.85;13.85;;;7.40;94.60;;;;;;5026575;28;19909;-68
2021/04/19 04:39:39;;;;;;;;;;;7.40;94.60;;;;;;5027971;28;20037;-67
2021/04/19 04:42:09;;;;;;;21.83;13.75;;;7.40;94.70;;;;;;5026998;28;19954;-68
2021/04/19 04:44:38;;;;;;;20.25;14.70;;;7.30;94.70;;;;;;5027359;28;20049;-68
2021/04/19 04:47:39;;;;;;;19.63;15.20;;;7.40;94.80;;;;;;5027179;28;20080;-68
2021/04/19 04:50:14;;;;;;;20.67;15.95;;;7.30;94.90;;;;;;5026661;28;20025;-68
2021/04/19 04:53:01;;;;;;;19.05;13.57;;;7.40;95.00;;;;;;5026979;28;20049;-70
2021/04/19 04:55:30;;;;;;;20.23;15.80;;;7.30;95.10;;;;;;5027447;28;20022;-67
2021/04/19 04:57:56;;;;;;;17.13;12.80;;;7.40;95.10;;;;;;5026826;28;20034;-68
2021/04/19 05:00:22;;;;;;;20.50;13.48;;;7.40;95.00;;;;;;5025585;28;20021;-68
2021/04/19 05:02:50;;;;;;;17.80;14.10;;;7.40;95.00;;;;;;5027193;28;20486;-68
2021/04/19 05:05:17;;;;;;;20.17;14.48;;;7.40;95.00;;;;;;5026877;28;20017;-68
2021/04/19 05:07:44;;;;;;;19.27;15.10;;;7.40;95.00;;;;;;5027231;28;20482;-66
2021/04/19 05:10:11;;;;;;;18.70;15.27;;;7.30;94.90;;;;;;5026481;28;20441;-68
2021/04/19 05:12:40;;;;;;;23.58;15.52;;;7.30;95.00;;;;;;5026708;28;20033;-69
2021/04/19 05:15:14;;;;;;;18.83;14.75;;;7.30;95.10;;;;;;5026668;28;20060;-67
2021/04/19 05:17:42;;;;;;;20.88;14.52;;;7.40;95.10;;;;;;5026740;28;20036;-66
2021/04/19 05:20:10;;;;;;;23.02;16.88;;;7.40;95.20;;;;;;5025577;28;20037;-66
2021/04/19 05:22:36;;;;;;;18.83;15.18;;;7.40;95.20;;;;;;5026787;28;20053;-68
2021/04/19 05:25:03;;;;;;;;;;;7.40;95.20;;;;;;5027220;28;20064;-65
2021/04/19 05:27:30;;;;;;;21.75;16.60;;;7.40;95.20;;;;;;5024917;28;20488;-66
2021/04/19 05:29:56;;;;;;;20.20;16.17;;;7.40;95.20;;;;;;5026656;28;20079;-66
2021/04/19 05:32:22;;;;;;;22.25;17.05;;;7.40;95.10;;;;;;5041775;28;20421;-66
2021/04/19 05:34:50;;;;;;;;;;;7.50;95.20;;;;;;5026269;28;20025;-66
2021/04/19 05:37:19;;;;;;;22.20;16.92;;;7.50;95.20;;;;;;5026447;28;19963;-66
2021/04/19 05:39:45;;;;;;;21.83;16.63;;;7.60;95.10;;;;;;5026543;28;20029;-66
2021/04/19 05:42:15;;;;;;;20.98;17.40;;;7.60;94.80;;;;;;5026526;28;20028;-66
2021/04/19 05:44:42;;;;;;;21.42;15.95;;;7.60;94.80;;;;;;5026208;28;20064;-66
2021/04/19 05:47:09;;;;;;;20.40;15.88;;;7.60;94.70;;;;;;5041854;28;20030;-66
2021/04/19 05:49:34;;;;;;;18.80;15.13;;;7.60;94.70;;;;;;5025645;28;20035;-66
2021/04/19 05:52:01;;;;;;;;;;;7.60;94.70;;;;;;5026675;28;20041;-66
2021/04/19 05:54:27;;;;;;;17.88;14.45;;;7.50;94.60;;;;;;5026399;28;20527;-67
2021/04/19 05:57:02;;;;;;;;;;;7.50;94.50;;;;;;5026748;28;20029;-66
2021/04/19 05:59:46;;;;;;;26.52;18.02;;;7.50;94.60;;;;;;5025077;28;19996;-66
2021/04/19 06:02:15;;;;;;;27.05;19.02;;;7.50;94.70;;;;;;5036558;28;20028;-66
2021/04/19 06:04:49;;;;;;;30.98;20.95;;;7.50;94.80;;;;;;5045191;28;20029;-66
2021/04/19 06:07:28;;;;;;;27.38;20.48;;;7.50;94.80;;;;;;5044782;28;20520;-66
2021/04/19 06:10:04;;;;;;;35.65;20.15;;;7.50;94.90;;;;;;5045637;28;20402;-66
2021/04/19 06:12:33;;;;;;;27.25;21.75;;;7.50;94.80;;;;;;5045589;28;20704;-64
2021/04/19 06:15:04;;;;;;;26.33;20.75;;;7.50;94.80;;;;;;5045479;28;20025;-66
2021/04/19 06:17:31;;;;;;;27.77;19.48;;;7.60;95.00;;;;;;5045923;28;20064;-66
2021/04/19 06:19:57;;;;;;;25.70;20.10;;;7.60;94.70;;;;;;5044239;28;20021;-66
2021/04/19 06:22:23;;;;;;;;;;;7.60;94.70;;;;;;5044832;28;20094;-66
2021/04/19 06:24:50;;;;;;;41.72;32.50;;;7.60;94.70;;;;;;5046061;28;19909;-67
2021/04/19 06:27:26;;;;;;;43.05;32.88;;;7.60;94.70;;;;;;5045929;28;20021;-67
2021/04/19 06:29:53;;;;;;;31.55;21.98;;;7.70;94.70;;;;;;5046017;28;20399;-66
2021/04/19 06:32:23;;;;;;;24.50;19.70;;;7.70;94.50;;;;;;5048470;28;20032;-66
2021/04/19 06:34:52;;;;;;;25.20;19.63;;;7.70;94.40;;;;;;5049135;28;20087;-67
2021/04/19 06:37:20;;;;;;;24.38;18.73;;;7.70;94.00;;;;;;5049822;28;20056;-67
2021/04/19 06:39:46;;;;;;;29.00;22.50;;;7.70;94.20;;;;;;5049610;28;20726;-65
2021/04/19 06:42:12;;;;;;;;;;;7.70;94.30;;;;;;5049863;28;20059;-66
2021/04/19 06:44:38;;;;;;;23.30;18.30;;;7.80;94.30;;;;;;5049406;28;20444;-66
2021/04/19 06:47:04;;;;;;;;;;;7.80;94.10;;;;;;5049286;28;20533;-67
2021/04/19 06:49:29;;;;;;;21.35;17.27;;;7.90;94.00;;;;;;5048775;28;19913;-66
2021/04/19 06:51:55;;;;;;;;;;;8.00;93.90;;;;;;5049439;28;20724;-66
2021/04/19 06:54:22;;;;;;;19.77;16.75;;;8.00;93.70;;;;;;5049191;28;19908;-66
2021/04/19 06:56:49;;;;;;;17.52;14.30;;;8.10;93.80;;;;;;5046947;28;20112;-67
2021/04/19 06:59:20;;;;;;;17.85;14.63;;;8.10;93.70;;;;;;5047833;28;20029;-66
2021/04/19 07:01:51;;;;;;;16.25;13.57;;;8.20;93.60;;;;;;5048562;28;20024;-66
2021/04/19 07:04:24;;;;;;;15.07;13.27;;;8.40;93.20;;;;;;5047907;28;20029;-66
2021/04/19 07:06:50;;;;;;;14.73;12.30;;;8.40;93.10;;;;;;5047540;28;20033;-67
2021/04/19 07:09:23;;;;;;;15.63;13.45;;;8.40;93.00;;;;;;5048670;28;20494;-66
2021/04/19 07:11:53;;;;;;;14.65;12.75;;;8.50;92.80;;;;;;5048988;28;20043;-67
2021/04/19 07:14:20;;;;;;;13.55;12.15;;;8.60;92.80;;;;;;5049022;28;20469;-67
2021/04/19 07:16:47;;;;;;;13.02;11.65;;;8.70;92.60;;;;;;5048862;28;20491;-67
2021/04/19 07:19:13;;;;;;;12.27;11.02;;;8.90;92.60;;;;;;5048477;28;20041;-66
2021/04/19 07:21:38;;;;;;;;;;;9.00;92.30;;;;;;5049333;28;20087;-64
2021/04/19 07:24:05;;;;;;;13.45;11.23;;;9.20;92.00;;;;;;5047863;28;19919;-66
2021/04/19 07:26:31;;;;;;;12.55;9.48;;;9.30;91.90;;;;;;5047952;28;20193;-66
2021/04/19 07:28:57;;;;;;;;;;;9.40;91.60;;;;;;5048811;28;20492;-67
2021/04/19 07:31:23;;;;;;;10.07;7.70;;;9.30;90.90;;;;;;5047824;28;20030;-66
2021/04/19 07:33:48;;;;;;;;;;;9.30;90.70;;;;;;5047824;28;20426;-67
2021/04/19 07:36:28;;;;;;;9.15;8.18;;;9.20;90.00;;;;;;5047680;28;19983;-65
2021/04/19 07:38:55;;;;;;;10.90;9.77;;;9.00;90.40;;;;;;5048388;28;20032;-67
2021/04/19 07:41:21;;;;;;;9.88;8.40;;;9.00;90.90;;;;;;5047762;28;20017;-66
2021/04/19 07:43:48;;;;;;;11.77;10.52;;;9.00;91.10;;;;;;5047982;28;20033;-66
2021/04/19 07:46:17;;;;;;;10.15;9.00;;;9.10;91.20;;;;;;5048227;28;20040;-67
2021/04/19 07:48:48;;;;;;;9.57;8.50;;;9.10;91.20;;;;;;5048086;28;20100;-66
2021/04/19 07:51:29;;;;;;;9.23;8.23;;;9.10;91.20;;;;;;5048482;28;20025;-66
2021/04/19 07:54:22;;;;;;;9.52;8.35;;;9.20;90.90;;;;;;5048193;28;20040;-67
2021/04/19 07:56:53;;;;;;;19.60;14.85;;;9.20;90.70;;;;;;5048441;28;20025;-66
2021/04/19 07:59:24;;;;;;;15.27;12.63;;;9.30;90.60;;;;;;5048032;28;20539;-67
2021/04/19 08:02:12;;;;;;;11.50;10.05;;;9.30;90.80;;;;;;5048160;28;20115;-66
2021/04/19 08:04:48;;;;;;;11.55;9.52;;;9.30;90.70;;;;;;5041150;28;20099;-66
2021/04/19 08:07:21;;;;;;;7.95;7.07;;;9.30;90.60;;;;;;5046534;28;20033;-67
2021/04/19 08:10:00;;;;;;;7.55;6.75;;;9.40;90.80;;;;;;5046650;28;20032;-66
2021/04/19 08:12:42;;;;;;;6.90;6.20;;;9.60;90.40;;;;;;5028657;28;20048;-66
2021/04/19 08:15:13;;;;;;;7.07;6.00;;;9.60;89.20;;;;;;5047497;28;20063;-66
2021/04/19 08:17:40;;;;;;;10.38;8.77;;;9.60;89.00;;;;;;5046867;28;20556;-66
2021/04/19 08:20:11;;;;;;;3.85;3.35;;;9.60;87.40;;;;;;5047603;28;20383;-66
2021/04/19 08:22:38;;;;;;;4.93;4.00;;;9.70;87.10;;;;;;5045431;28;20048;-66
2021/04/19 08:25:23;;;;;;;5.40;4.25;;;9.80;85.70;;;;;;5047250;28;20135;-66
2021/04/19 08:28:02;;;;;;;4.68;3.67;;;9.80;86.50;;;;;;5046863;28;20093;-66
2021/04/19 08:30:28;;;;;;;4.05;3.30;;;9.80;85.30;;;;;;5046854;28;20032;-66
2021/04/19 08:32:55;;;;;;;;;;;9.90;85.80;;;;;;5047007;28;20033;-67
2021/04/19 08:35:21;;;;;;;2.40;2.00;;;10.10;84.00;;;;;;5046839;28;19962;-67
2021/04/19 08:37:47;;;;;;;;;;;10.30;81.70;;;;;;5046963;28;20037;-66
2021/04/19 08:40:15;;;;;;;3.85;3.13;;;10.40;80.10;;;;;;5046783;28;20397;-66
2021/04/19 08:42:41;;;;;;;5.47;2.83;;;10.30;81.10;;;;;;5046711;28;20058;-66
2021/04/19 08:45:07;;;;;;;3.67;3.25;;;10.40;80.50;;;;;;5045292;28;20045;-66
2021/04/19 08:47:34;;;;;;;3.25;2.95;;;10.50;81.20;;;;;;5045500;28;20125;-66
2021/04/19 08:50:08;;;;;;;6.72;2.92;;;10.60;82.30;;;;;;5046415;28;20025;-66
2021/04/19 08:52:35;;;;;;;2.65;2.40;;;10.70;80.80;;;;;;5046274;28;20041;-66
2021/04/19 08:55:02;;;;;;;3.58;2.38;;;10.80;78.80;;;;;;5045132;28;20029;-66
2021/04/19 08:57:28;;;;;;;2.72;2.40;;;10.80;78.30;;;;;;5044644;28;20699;-66
2021/04/19 08:59:54;;;;;;;;;;;10.90;77.00;;;;;;5046089;28;20032;-66
2021/04/19 09:02:22;;;;;;;3.45;2.53;;;11.10;77.00;;;;;;5045931;28;19913;-67
2021/04/19 09:05:05;;;;;;;2.42;2.20;;;11.20;78.00;;;;;;5045919;28;20099;-67
2021/04/19 09:07:36;;;;;;;3.53;2.60;;;11.30;78.30;;;;;;5046596;28;20021;-66
2021/04/19 09:10:04;;;;;;;2.90;2.40;;;11.40;79.00;;;;;;5046344;28;20039;-66
2021/04/19 09:12:30;;;;;;;3.10;2.80;;;11.70;79.30;;;;;;5046396;28;20040;-66
2021/04/19 09:15:16;;;;;;;2.33;1.85;;;12.00;79.20;;;;;;5045683;28;20025;-67
2021/04/19 09:17:43;;;;;;;10.13;6.50;;;12.30;75.70;;;;;;5045129;28;20021;-66
2021/04/19 09:20:13;;;;;;;7.78;4.50;;;12.40;73.80;;;;;;5045446;28;20037;-67
2021/04/19 09:22:39;;;;;;;3.10;1.92;;;12.30;73.60;;;;;;5045097;28;20061;-66
2021/04/19 09:25:13;;;;;;;11.98;9.43;;;12.10;72.20;;;;;;5045250;28;20067;-67
2021/04/19 09:27:45;;;;;;;8.88;6.68;;;12.10;72.70;;;;;;5046792;28;20071;-67
2021/04/19 09:30:28;;;;;;;4.05;3.45;;;12.10;72.10;;;;;;5046278;28;20033;-66
2021/04/19 09:33:05;;;;;;;2.65;1.90;;;12.00;75.00;;;;;;5046070;28;20259;-67
2021/04/19 09:35:52;;;;;;;2.75;2.03;;;12.10;76.40;;;;;;5046252;28;20477;-67
2021/04/19 09:38:33;;;;;;;2.70;1.92;;;12.20;74.80;;;;;;5045515;28;20478;-66
2021/04/19 09:41:03;;;;;;;1.88;1.27;;;12.20;73.20;;;;;;5043107;28;20100;-66
2021/04/19 09:43:29;;;;;;;2.28;1.40;;;12.30;74.10;;;;;;5044612;28;20117;-67
2021/04/19 09:45:55;;;;;;;;;;;12.60;70.30;;;;;;5046172;28;20151;-66
2021/04/19 09:48:33;;;;;;;3.85;2.60;;;12.70;70.70;;;;;;5046076;28;19908;-67
2021/04/19 09:51:02;;;;;;;1.33;0.98;;;12.80;69.80;;;;;;5045105;28;20025;-66
2021/04/19 09:53:32;;;;;;;5.68;3.30;;;12.80;67.80;;;;;;5045378;28;20032;-66
2021/04/19 09:55:58;;;;;;;7.38;3.40;;;12.90;69.10;;;;;;5045103;28;20087;-65
2021/04/19 09:58:24;;;;;;;;;;;12.90;67.80;;;;;;5041510;28;20397;-66
2021/04/19 10:01:00;;;;;;;2.45;1.70;;;12.70;67.60;;;;;;5044522;28;20625;-66
2021/04/19 10:03:27;;;;;;;2.80;1.77;;;12.70;68.40;;;;;;5045263;28;20040;-67
2021/04/19 10:05:55;;;;;;;3.28;1.13;;;12.80;68.80;;;;;;5042975;28;20044;-66
2021/04/19 10:08:23;;;;;;;3.95;0.90;;;12.90;67.30;;;;;;5045638;28;20090;-66
2021/04/19 10:10:55;;;;;;;2.33;1.20;;;13.20;65.30;;;;;;5045142;28;20381;-66
2021/04/19 10:13:38;;;;;;;2.13;1.45;;;13.20;64.90;;;;;;5044933;28;20445;-66
2021/04/19 10:16:12;;;;;;;2.58;1.80;;;13.20;66.80;;;;;;5044174;28;20041;-67
2021/04/19 10:18:43;;;;;;;3.33;1.75;;;13.40;67.00;;;;;;5043925;28;20662;-66
2021/04/19 10:21:21;;;;;;;1.80;1.30;;;13.30;66.30;;;;;;5044677;28;20112;-66
2021/04/19 10:23:47;;;;;;;1.85;1.35;;;13.00;65.90;;;;;;5045084;28;20075;-66
2021/04/19 10:26:13;;;;;;;;;;;12.90;64.80;;;;;;5045574;28;20364;-66
2021/04/19 10:28:44;;;;;;;1.80;1.15;;;13.00;62.40;;;;;;5044957;28;20644;-67
2021/04/19 10:31:12;;;;;;;4.68;1.80;;;12.80;65.90;;;;;;5044239;28;20048;-67
2021/04/19 10:33:39;;;;;;;3.88;1.48;;;12.80;67.30;;;;;;5044904;28;20048;-66
2021/04/19 10:36:23;;;;;;;2.13;1.50;;;12.70;66.80;;;;;;5044607;28;20036;-67
2021/04/19 10:38:54;;;;;;;2.20;1.70;;;12.80;68.90;;;;;;5045203;28;20669;-67
2021/04/19 10:41:34;;;;;;;6.35;1.92;;;12.90;65.10;;;;;;5044296;28;20517;-67
2021/04/19 10:44:01;;;;;;;5.03;2.05;;;13.00;65.20;;;;;;5045429;28;20033;-67
2021/04/19 10:46:29;;;;;;;3.15;1.58;;;13.20;65.90;;;;;;5045445;28;20067;-66
2021/04/19 10:48:56;;;;;;;6.18;3.25;;;13.30;64.10;;;;;;5045815;28;20468;-67
2021/04/19 10:51:25;;;;;;;2.50;1.80;;;13.40;64.10;;;;;;5045289;28;20082;-67
2021/04/19 10:53:53;;;;;;;7.10;3.72;;;13.50;65.10;;;;;;5045590;28;20466;-66
2021/04/19 10:56:24;;;;;;;7.35;4.10;;;13.80;62.10;;;;;;5045395;28;20028;-67
2021/04/19 10:58:53;;;;;;;7.60;2.10;;;13.70;62.10;;;;;;5045255;28;20116;-67
2021/04/19 11:01:34;;;;;;;3.22;2.10;;;13.60;62.20;;;;;;5043935;28;20024;-66
2021/04/19 11:04:06;;;;;;;7.18;1.13;;;13.40;64.50;;;;;;5045298;28;20109;-67
2021/04/19 11:06:32;;;;;;;3.30;1.40;;;13.10;63.80;;;;;;5045086;28;20501;-67
2021/04/19 11:08:59;;;;;;;3.00;2.22;;;12.90;65.60;;;;;;5045703;28;20513;-66
2021/04/19 11:11:25;;;;;;;3.92;1.88;;;12.80;67.20;;;;;;5045544;28;20359;-67
2021/04/19 11:13:51;;;;;;;;;;;12.70;67.30;;;;;;5045673;28;20469;-66
2021/04/19 11:16:23;;;;;;;2.35;1.77;;;12.70;66.10;;;;;;5044957;28;19970;-66
2021/04/19 11:18:50;;;;;;;2.75;1.70;;;12.60;67.60;;;;;;5047692;28;20756;-66
2021/04/19 11:21:27;;;;;;;4.07;1.60;;;12.50;67.30;;;;;;5048520;28;20478;-66
2021/04/19 11:24:13;;;;;;;3.22;1.80;;;12.50;68.40;;;;;;5048463;28;20074;-66
2021/04/19 11:26:42;;;;;;;2.35;1.60;;;12.50;68.90;;;;;;5048515;28;20048;-66
2021/04/19 11:29:08;;;;;;;1.50;1.20;;;12.60;67.50;;;;;;5048946;28;20025;-66
2021/04/19 11:31:49;;;;;;;3.97;1.98;;;12.60;68.10;;;;;;5047946;28;20442;-66
2021/04/19 11:34:16;;;;;;;2.95;1.67;;;12.70;69.90;;;;;;5048693;28;20033;-66
2021/04/19 11:36:44;;;;;;;2.83;1.85;;;12.70;67.60;;;;;;5048760;28;20480;-67
2021/04/19 11:39:20;;;;;;;2.15;1.48;;;12.60;68.60;;;;;;5048426;28;20473;-66
2021/04/19 11:41:48;;;;;;;1.88;1.35;;;12.60;68.60;;;;;;5048063;28;20021;-67
2021/04/19 11:44:14;;;;;;;2.25;1.60;;;12.70;68.80;;;;;;5048428;28;20564;-67
2021/04/19 11:46:46;;;;;;;4.25;1.85;;;12.80;69.30;;;;;;5047605;28;20058;-66
2021/04/19 11:49:20;;;;;;;1.85;1.40;;;12.90;68.00;;;;;;5047964;28;20063;-66
2021/04/19 11:51:47;;;;;;;2.40;1.38;;;12.90;67.20;;;;;;5047732;28;20048;-66
2021/04/19 11:54:12;;;;;;;2.92;1.85;;;12.80;67.30;;;;;;5048360;28;20029;-67
2021/04/19 11:56:38;;;;;;;;;;;12.70;67.90;;;;;;5048491;28;20046;-67
2021/04/19 11:59:07;;;;;;;6.05;2.72;;;12.70;68.80;;;;;;5047961;28;19956;-67
2021/04/19 12:01:34;;;;;;;8.10;3.45;;;12.80;69.10;;;;;;5047949;28;20024;-67
2021/04/19 12:04:03;;;;;;;8.77;5.72;;;12.90;69.20;;;;;;5047745;28;20024;-67
2021/04/19 12:06:29;;;;;;;4.03;3.03;;;12.80;68.30;;;;;;5047080;28;20029;-67
2021/04/19 12:08:54;;;;;;;;;;;12.80;68.80;;;;;;5048209;28;20082;-67
2021/04/19 12:11:23;;;;;;;4.38;3.15;;;12.70;68.90;;;;;;5048284;28;19947;-67
2021/04/19 12:14:00;;;;;;;10.40;5.82;;;12.60;69.70;;;;;;5047410;28;20086;-67
2021/04/19 12:16:27;;;;;;;3.83;2.55;;;12.50;70.20;;;;;;5047550;28;20510;-67
2021/04/19 12:18:53;;;;;;;5.03;2.90;;;12.50;70.00;;;;;;5047627;28;20029;-67
2021/04/19 12:21:19;;;;;;;3.22;2.45;;;12.40;70.80;;;;;;5046775;28;20025;-66
2021/04/19 12:23:44;;;;;;;;;;;12.30;70.70;;;;;;5048229;28;20040;-66
2021/04/19 12:26:10;;;;;;;5.03;3.53;;;12.30;71.70;;;;;;5046009;28;19916;-67
2021/04/19 12:28:36;;;;;;;;;;;12.30;71.50;;;;;;5047987;28;20489;-66
2021/04/19 12:31:02;;;;;;;5.47;4.30;;;12.20;69.80;;;;;;5047402;28;19912;-66
2021/04/19 12:33:27;;;;;;;;;;;12.10;70.60;;;;;;5048168;28;20033;-66
2021/04/19 12:35:53;;;;;;;5.07;4.00;;;12.10;72.20;;;;;;5047540;28;19912;-67
2021/04/19 12:38:18;;;;;;;;;;;12.00;72.00;;;;;;5047815;28;20112;-67
2021/04/19 12:40:44;;;;;;;8.10;4.53;;;11.80;72.60;;;;;;5047520;28;19995;-66
2021/04/19 12:43:10;;;;;;;;;;;11.80;72.10;;;;;;5047896;28;20029;-65
2021/04/19 12:45:37;;;;;;;6.85;4.28;;;11.70;72.70;;;;;;5046749;28;19921;-67
2021/04/19 12:48:09;;;;;;;9.85;7.70;;;11.60;73.20;;;;;;5047120;28;20021;-66
2021/04/19 12:50:37;;;;;;;12.70;9.60;;;11.50;73.40;;;;;;5047282;28;20052;-67
2021/04/19 12:53:04;;;;;;;17.17;10.25;;;11.50;73.40;;;;;;5045669;28;20541;-66
2021/04/19 12:55:31;;;;;;;8.38;5.50;;;11.30;73.20;;;;;;5047315;28;20622;-66
2021/04/19 12:57:56;;;;;;;7.40;4.72;;;11.20;74.10;;;;;;5046670;28;20031;-66
2021/04/19 13:00:22;;;;;;;;;;;11.10;74.90;;;;;;5046846;28;20032;-67
2021/04/19 13:02:48;;;;;;;14.07;10.05;;;11.00;75.90;;;;;;5047055;28;20309;-67
2021/04/19 13:05:16;;;;;;;;;;;11.00;76.80;;;;;;5047055;28;20029;-67